Time;durP1;ratioP1;P1;durP2;ratioP2;P2;SDS_P1;SDS_P2;PMS_P1;PMS_P2;Temp;Humidity;BMP_temperature;BMP_pressure;BME280_temperature;BME280_humidity;BME280_pressure;Samples;Min_cycle;Max_cycle;Signal;HPM_P1;HPM_P2
2021/04/01 00:00:16;;;;;;;;;;;;;;;13.39;71.24;102003.50;5072225;28;20011;-75
2021/04/01 00:02:43;;;;;;;;;;;;;;;13.42;69.69;102002.69;5071762;28;19958;-75
2021/04/01 00:05:08;;;;;;;;;;;;;;;13.49;68.73;102006.34;5054321;28;19912;-75
2021/04/01 00:07:34;;;;;;;;;;;;;;;13.49;67.58;102002.06;5054045;28;19958;-74
2021/04/01 00:09:59;;;;;;;;;;;;;;;13.51;66.47;101995.22;5069168;28;20007;-75
2021/04/01 00:12:25;;;;;;;;;;;;;;;13.60;67.39;102002.38;5071578;28;19923;-75
2021/04/01 00:14:50;;;;;;;;;;;;;;;13.54;68.13;101990.16;5054178;28;19934;-75
2021/04/01 00:17:15;;;;;;;;;;;;;;;13.43;70.03;101998.41;5071840;28;20357;-74
2021/04/01 00:19:40;;;;;;;;;;;;;;;13.39;68.99;102000.03;5071901;28;19947;-75
2021/04/01 00:22:06;;;;;;;;;;;;;;;13.41;67.74;102006.13;5049968;28;20375;-75
2021/04/01 00:24:31;;;;;;;;;;;;;;;13.44;67.32;102008.78;5069905;28;19912;-75
2021/04/01 00:26:57;;;;;;;;;;;;;;;13.43;68.49;101996.72;5068842;28;19916;-75
2021/04/01 00:29:22;;;;;;;;;;;;;;;13.42;65.23;102001.81;5068471;28;20366;-75
2021/04/01 00:31:47;;;;;;;;;;;;;;;13.53;64.07;101996.16;5053292;28;19916;-75
2021/04/01 00:34:13;;;;;;;;;;;;;;;13.57;64.51;101986.78;5067366;28;20309;-74
2021/04/01 00:36:38;;;;;;;;;;;;;;;13.58;63.99;101981.66;5071398;28;19982;-75
2021/04/01 00:39:03;;;;;;;;;;;;;;;13.59;63.90;101988.56;5053701;28;19931;-73
2021/04/01 00:41:29;;;;;;;;;;;;;;;13.60;63.63;101992.03;5050394;28;19938;-75
2021/04/01 00:43:54;;;;;;;;;;;;;;;13.59;64.25;101991.16;5070613;28;19920;-75
2021/04/01 00:46:19;;;;;;;;;;;;;;;13.59;64.49;101992.88;5071329;28;19919;-74
2021/04/01 00:48:44;;;;;;;;;;;;;;;13.52;66.04;101996.09;5071438;28;20434;-75
2021/04/01 00:51:09;;;;;;;;;;;;;;;13.46;65.90;101996.81;5049291;28;19966;-75
2021/04/01 00:53:35;;;;;;;;;;;;;;;13.42;65.51;101994.97;5071428;28;19912;-75
2021/04/01 00:56:00;;;;;;;;;;;;;;;13.41;64.12;101989.75;5071686;28;19919;-75
2021/04/01 00:58:26;;;;;;;;;;;;;;;13.45;62.60;101984.72;5065069;28;19912;-75
2021/04/01 01:01:23;;;;;;;;;;;;;;;13.45;62.88;101979.56;5069228;28;19912;-75
2021/04/01 01:03:39;;;;;;;;;;;;;;;13.52;62.18;101986.66;5067662;28;19966;-75
2021/04/01 01:06:04;;;;;;;;;;;;;;;13.54;61.57;101986.69;5071249;28;20335;-74
2021/04/01 01:08:30;;;;;;;;;;;;;;;13.54;60.95;101985.00;5068213;28;19936;-75
2021/04/01 01:10:55;;;;;;;;;;;;;;;13.55;60.59;101986.75;5066756;28;19961;-75
2021/04/01 01:13:20;;;;;;;;;;;;;;;13.53;60.12;101972.03;5053063;28;19954;-74
2021/04/01 01:15:45;;;;;;;;;;;;;;;13.52;60.21;101983.19;5053121;28;19912;-75
2021/04/01 01:18:10;;;;;;;;;;;;;;;13.49;60.35;101986.56;5071160;28;19931;-76
2021/04/01 01:20:36;;;;;;;;;;;;;;;13.45;60.73;101989.88;5068011;28;19966;-75
2021/04/01 01:23:05;;;;;;;;;;;;;;;13.41;63.43;101993.22;5067066;28;20003;-76
2021/04/01 01:25:31;;;;;;;;;;;;;;;13.21;69.00;101991.72;5065277;28;19913;-74
2021/04/01 01:27:56;;;;;;;;;;;;;;;13.03;70.22;101992.84;5066019;28;19912;-75
2021/04/01 01:30:21;;;;;;;;;;;;;;;12.97;70.58;102000.38;5069985;28;19916;-72
2021/04/01 01:32:55;;;;;;;;;;;;;;;12.97;69.50;101997.78;5052283;28;19913;-75
2021/04/01 01:35:24;;;;;;;;;;;;;;;12.95;69.14;101998.56;5067056;28;19927;-74
2021/04/01 01:37:58;;;;;;;;;;;;;;;12.81;69.56;102007.56;5070189;28;19912;-74
2021/04/01 01:40:24;;;;;;;;;;;;;;;12.60;72.31;102010.31;5066917;28;20293;-74
2021/04/01 01:42:50;;;;;;;;;;;;;;;12.43;73.91;102012.31;5052042;28;20436;-75
2021/04/01 01:45:16;;;;;;;;;;;;;;;12.31;76.78;102014.44;5070506;28;19912;-74
2021/04/01 01:47:41;;;;;;;;;;;;;;;12.25;74.18;102003.94;5069834;28;20003;-74
2021/04/01 01:50:07;;;;;;;;;;;;;;;12.26;70.80;102008.25;5070146;28;19961;-75
2021/04/01 01:52:32;;;;;;;;;;;;;;;12.30;69.94;102012.69;5069689;28;20384;-75
2021/04/01 01:54:57;;;;;;;;;;;;;;;12.29;69.85;102009.25;5052198;28;19916;-74
2021/04/01 01:57:22;;;;;;;;;;;;;;;12.20;71.24;102014.06;5056756;28;20439;-75
2021/04/01 01:59:47;;;;;;;;;;;;;;;12.00;73.73;102017.63;5053840;28;19912;-73
2021/04/01 02:02:12;;;;;;;;;;;;;;;11.84;73.20;102026.50;5071638;28;19958;-74
2021/04/01 02:04:38;;;;;;;;;;;;;;;11.65;76.29;102024.00;5056007;28;19916;-75
2021/04/01 02:07:03;;;;;;;;;;;;;;;11.57;75.93;102026.28;5055902;28;19916;-74
2021/04/01 02:09:28;;;;;;;;;;;;;;;11.50;75.95;102029.44;5055609;28;20007;-74
2021/04/01 02:11:53;;;;;;;;;;;;;;;11.27;76.34;102027.66;5055419;28;19923;-72
2021/04/01 02:14:18;;;;;;;;;;;;;;;11.30;74.28;102026.06;5073702;28;19919;-75
2021/04/01 02:16:44;;;;;;;;;;;;;;;11.37;74.20;102022.91;5073549;28;19966;-74
2021/04/01 02:19:09;;;;;;;;;;;;;;;11.32;73.13;102021.00;5055918;28;20031;-74
2021/04/01 02:21:35;;;;;;;;;;;;;;;11.45;71.18;102024.13;5072987;28;19912;-74
2021/04/01 02:24:00;;;;;;;;;;;;;;;11.42;71.90;102025.69;5051356;28;19916;-74
2021/04/01 02:26:25;;;;;;;;;;;;;;;11.62;71.65;102031.59;5061205;28;19958;-75
2021/04/01 02:28:50;;;;;;;;;;;;;;;11.66;70.73;102024.03;5073259;28;19912;-74
2021/04/01 02:31:22;;;;;;;;;;;;;;;11.82;69.07;102029.00;5053483;28;20344;-74
2021/04/01 02:33:47;;;;;;;;;;;;;;;11.81;70.09;102022.09;5052838;28;19912;-75
2021/04/01 02:36:13;;;;;;;;;;;;;;;11.56;70.48;102021.94;5070826;28;19923;-74
2021/04/01 02:38:38;;;;;;;;;;;;;;;11.48;70.74;102031.94;5073509;28;19912;-74
2021/04/01 02:41:03;;;;;;;;;;;;;;;11.53;70.13;102035.56;5073286;28;20653;-74
2021/04/01 02:43:34;;;;;;;;;;;;;;;11.60;69.38;102034.13;5055563;28;20335;-75
2021/04/01 02:46:00;;;;;;;;;;;;;;;11.69;68.78;102031.88;5073149;28;19919;-74
2021/04/01 02:48:26;;;;;;;;;;;;;;;11.74;68.26;102027.81;5073089;28;19912;-74
2021/04/01 02:50:51;;;;;;;;;;;;;;;11.87;67.60;102031.75;5072310;28;20567;-75
2021/04/01 02:53:16;;;;;;;;;;;;;;;11.69;69.03;102031.00;5054766;28;20035;-74
2021/04/01 02:55:41;;;;;;;;;;;;;;;11.80;67.99;102028.06;5055185;28;19912;-75
2021/04/01 02:58:07;;;;;;;;;;;;;;;11.75;68.06;102028.69;5073352;28;20018;-74
2021/04/01 03:00:34;;;;;;;;;;;;;;;11.68;68.24;102029.25;5054638;28;20400;-75
2021/04/01 03:03:21;;;;;;;;;;;;;;;11.65;68.47;102024.00;5054984;28;20026;-76
2021/04/01 03:05:47;;;;;;;;;;;;;;;11.40;69.52;102029.91;5072569;28;20365;-75
2021/04/01 03:08:12;;;;;;;;;;;;;;;11.21;69.78;102028.28;5071829;28;19912;-75
2021/04/01 03:10:37;;;;;;;;;;;;;;;11.03;71.42;102038.69;5072266;28;19931;-75
2021/04/01 03:13:03;;;;;;;;;;;;;;;10.95;70.84;102041.78;5054564;28;19995;-74
2021/04/01 03:15:28;;;;;;;;;;;;;;;10.96;70.82;102039.25;5072577;28;19921;-76
2021/04/01 03:17:53;;;;;;;;;;;;;;;10.97;71.70;102035.88;5072585;28;19927;-74
2021/04/01 03:20:18;;;;;;;;;;;;;;;10.93;71.96;102036.56;5054258;28;20010;-73
2021/04/01 03:22:44;;;;;;;;;;;;;;;10.90;71.89;102039.03;5072175;28;19932;-74
2021/04/01 03:25:10;;;;;;;;;;;;;;;10.95;72.66;102031.50;5050517;28;19920;-74
2021/04/01 03:27:36;;;;;;;;;;;;;;;10.97;71.94;102033.31;5056177;28;19916;-74
2021/04/01 03:30:06;;;;;;;;;;;;;;;11.03;71.18;102035.25;5071455;28;20263;-74
2021/04/01 03:32:31;;;;;;;;;;;;;;;10.89;73.47;102037.25;5069255;28;19917;-74
2021/04/01 03:34:57;;;;;;;;;;;;;;;10.63;73.03;102035.28;5070419;28;19936;-74
2021/04/01 03:37:22;;;;;;;;;;;;;;;10.51;74.13;102044.25;5072053;28;20297;-75
2021/04/01 03:39:47;;;;;;;;;;;;;;;10.37;74.00;102035.03;5054046;28;19912;-74
2021/04/01 03:42:12;;;;;;;;;;;;;;;10.37;74.43;102045.31;5071859;28;19916;-74
2021/04/01 03:44:38;;;;;;;;;;;;;;;10.40;73.68;102036.84;5053931;28;19969;-74
2021/04/01 03:47:03;;;;;;;;;;;;;;;10.37;74.45;102049.56;5071893;28;19916;-74
2021/04/01 03:49:28;;;;;;;;;;;;;;;10.25;74.86;102045.66;5071863;28;19912;-72
2021/04/01 03:51:53;;;;;;;;;;;;;;;10.03;75.88;102042.03;5071297;28;19970;-73
2021/04/01 03:54:18;;;;;;;;;;;;;;;9.90;76.36;102041.50;5071722;28;19947;-74
2021/04/01 03:56:48;;;;;;;;;;;;;;;9.98;76.25;102037.56;5072259;28;19916;-74
2021/04/01 03:59:13;;;;;;;;;;;;;;;9.97;76.00;102040.06;5053740;28;20373;-74
2021/04/01 04:07:26;;;;;;;;;;;;;;;9.78;76.41;102035.81;5071712;28;20343;-76
2021/04/01 04:15:17;;;;;;;;;;;;;;;9.53;77.00;102041.47;5069148;28;19935;-74
2021/04/01 04:17:43;;;;;;;;;;;;;;;9.45;77.54;102050.50;5071384;28;19924;-74
2021/04/01 04:20:08;;;;;;;;;;;;;;;9.38;77.91;102057.81;5067784;28;19947;-75
2021/04/01 04:22:34;;;;;;;;;;;;;;;9.26;78.95;102056.44;5068137;28;19923;-75
2021/04/01 04:25:00;;;;;;;;;;;;;;;9.26;78.38;102048.75;5066860;28;20389;-75
2021/04/01 04:29:59;;;;;;;;;;;;;;;9.50;78.63;102048.16;5071140;28;19913;-72
2021/04/01 04:32:24;;;;;;;;;;;;;;;9.47;77.94;102048.91;5070633;28;21272;-74
2021/04/01 04:34:49;;;;;;;;;;;;;;;9.46;77.82;102046.25;5052996;28;19919;-74
2021/04/01 04:37:14;;;;;;;;;;;;;;;9.41;78.03;102048.56;5071214;28;20003;-71
2021/04/01 04:39:40;;;;;;;;;;;;;;;9.40;78.52;102049.38;5070746;28;19927;-76
2021/04/01 04:42:05;;;;;;;;;;;;;;;9.36;78.60;102045.78;5070488;28;19919;-72
2021/04/01 04:44:32;;;;;;;;;;;;;;;9.40;78.05;102049.38;5052998;28;20405;-75
2021/04/01 04:46:58;;;;;;;;;;;;;;;9.62;76.83;102057.28;5069451;28;19912;-74
2021/04/01 04:49:23;;;;;;;;;;;;;;;10.02;75.48;102051.41;5047258;28;20278;-74
2021/04/01 04:51:48;;;;;;;;;;;;;;;10.15;75.13;102052.88;5067812;28;19916;-72
2021/04/01 04:54:13;;;;;;;;;;;;;;;10.27;74.38;102056.88;5067785;28;19916;-74
2021/04/01 04:56:39;;;;;;;;;;;;;;;10.30;74.00;102056.13;5070594;28;19916;-74
2021/04/01 04:59:14;;;;;;;;;;;;;;;10.32;74.13;102056.19;5069647;28;19940;-75
2021/04/01 05:04:40;;;;;;;;;;;;;;;10.51;73.65;102064.78;5071143;28;19923;-74
2021/04/01 05:07:05;;;;;;;;;;;;;;;10.47;73.58;102057.78;5070390;28;20370;-74
2021/04/01 05:09:30;;;;;;;;;;;;;;;10.48;73.89;102056.97;5070612;28;19919;-73
2021/04/01 05:11:55;;;;;;;;;;;;;;;10.58;73.28;102061.66;5052778;28;20018;-74
2021/04/01 05:14:20;;;;;;;;;;;;;;;10.57;73.24;102059.91;5053103;28;20003;-75
2021/04/01 05:16:46;;;;;;;;;;;;;;;10.60;73.47;102065.19;5071198;28;19912;-74
2021/04/01 05:19:12;;;;;;;;;;;;;;;10.49;73.86;102074.13;5052997;28;20000;-74
2021/04/01 05:24:23;;;;;;;;;;;;;;;10.50;73.98;102075.88;5066934;28;19927;-74
2021/04/01 05:29:18;;;;;;;;;;;;;;;10.62;73.50;102080.66;5069260;28;19912;-74
2021/04/01 05:31:44;;;;;;;;;;;;;;;10.55;74.29;102087.25;5071680;28;19971;-74
2021/04/01 05:34:09;;;;;;;;;;;;;;;10.59;74.34;102080.53;5074815;28;20408;-74
2021/04/01 05:36:39;;;;;;;;;;;;;;;10.64;74.31;102091.88;5057166;28;19951;-74
2021/04/01 05:39:09;;;;;;;;;;;;;;;10.58;74.92;102107.91;5075035;28;19940;-74
2021/04/01 05:41:34;;;;;;;;;;;;;;;10.56;74.92;102101.84;5074707;28;19912;-74
2021/04/01 05:57:22;;;;;;;;;;;;;;;10.76;74.91;102112.13;4989792;28;19977;-74
2021/04/01 06:02:47;;;;;;;;;;;;;;;10.83;74.92;102124.41;5074675;28;19959;-73
2021/04/01 06:05:13;;;;;;;;;;;;;;;10.84;74.34;102124.47;5056466;28;20377;-74
2021/04/01 06:07:43;;;;;;;;;;;;;;;10.91;74.71;102134.19;5073186;28;19955;-73
2021/04/01 06:10:09;;;;;;;;;;;;;;;10.90;74.86;102147.00;5074386;28;19935;-74
2021/04/01 06:12:34;;;;;;;;;;;;;;;10.95;75.00;102153.22;5074011;28;20393;-75
2021/04/01 06:15:03;;;;;;;;;;;;;;;11.05;73.87;102157.91;5074497;28;19957;-74
2021/04/01 06:17:30;;;;;;;;;;;;;;;11.18;73.46;102160.22;5074239;28;19934;-74
2021/04/01 06:19:57;;;;;;;;;;;;;;;11.34;73.28;102156.56;5074102;28;19924;-74
2021/04/01 06:22:23;;;;;;;;;;;;;;;11.35;72.71;102172.91;5073902;28;19912;-71
2021/04/01 06:24:49;;;;;;;;;;;;;;;11.35;72.52;102178.03;5068585;28;19912;-73
2021/04/01 06:27:22;;;;;;;;;;;;;;;11.40;72.88;102168.84;5048300;28;19913;-74
2021/04/01 06:32:36;;;;;;;;;;;;;;;11.51;72.63;102167.59;5071805;28;20009;-74
2021/04/01 06:35:14;;;;;;;;;;;;;;;11.67;71.88;102159.66;5053377;28;20305;-74
2021/04/01 06:40:06;;;;;;;;;;;;;;;11.98;71.10;102151.47;5073798;28;19920;-74
2021/04/01 06:42:43;;;;;;;;;;;;;;;12.33;69.97;102167.41;5072258;28;19913;-73
2021/04/01 06:45:09;;;;;;;;;;;;;;;12.43;69.45;102172.97;5073775;28;19912;-74
2021/04/01 06:47:35;;;;;;;;;;;;;;;12.58;69.31;102179.50;5056028;28;19920;-74
2021/04/01 06:50:07;;;;;;;;;;;;;;;12.59;68.93;102170.94;5055505;28;19974;-74
2021/04/01 06:52:40;;;;;;;;;;;;;;;12.85;67.85;102171.91;5073364;28;19923;-74
2021/04/01 06:55:13;;;;;;;;;;;;;;;13.27;66.90;102180.28;5073673;28;20296;-74
2021/04/01 06:58:04;;;;;;;;;;;;;;;13.51;65.72;102175.94;5064781;28;19920;-74
2021/04/01 07:00:46;;;;;;;;;;;;;;;13.68;65.25;102185.13;5070135;28;19912;-73
2021/04/01 07:03:17;;;;;;;;;;;;;;;13.78;65.09;102175.09;5051638;28;19913;-73
2021/04/01 07:05:48;;;;;;;;;;;;;;;14.14;64.08;102171.06;5072672;28;21207;-72
2021/04/01 07:08:16;;;;;;;;;;;;;;;14.44;63.53;102175.41;5055348;28;19922;-76
2021/04/01 07:11:09;;;;;;;;;;;;;;;14.50;62.91;102185.94;5068823;28;19923;-74
2021/04/01 07:13:37;;;;;;;;;;;;;;;14.71;62.16;102193.44;5072311;28;20042;-74
2021/04/01 07:16:16;;;;;;;;;;;;;;;15.04;61.66;102203.84;5072166;28;20006;-74
2021/04/01 07:46:04;;;;;;;;;;;;;;;16.34;56.75;102234.75;5069290;28;19919;-73
2021/04/01 07:48:41;;;;;;;;;;;;;;;16.40;56.92;102234.88;5071735;28;19935;-75
2021/04/01 07:51:08;;;;;;;;;;;;;;;16.65;55.81;102241.50;5069805;28;19985;-74
2021/04/01 07:53:33;;;;;;;;;;;;;;;16.73;56.10;102244.28;5052466;28;19942;-74
2021/04/01 07:58:56;;;;;;;;;;;;;;;17.23;55.63;102252.16;5065061;28;20007;-73
2021/04/01 08:06:15;;;;;;;;;;;;;;;17.76;54.77;102250.56;5071725;28;19920;-77
2021/04/01 08:08:44;;;;;;;;;;;;;;;17.96;52.57;102246.56;5072702;28;19920;-74
2021/04/01 08:11:09;;;;;;;;;;;;;;;18.04;51.59;102252.75;5052760;28;20452;-74
2021/04/01 08:13:38;;;;;;;;;;;;;;;17.67;52.87;102253.91;5053120;28;19955;-74
2021/04/01 08:16:05;;;;;;;;;;;;;;;17.70;52.96;102253.06;5071109;28;19916;-74
2021/04/01 08:18:35;;;;;;;;;;;;;;;18.06;52.63;102260.59;5070825;28;19912;-74
2021/04/01 08:21:03;;;;;;;;;;;;;;;18.38;52.31;102262.78;5052379;28;19974;-74
2021/04/01 08:23:31;;;;;;;;;;;;;;;18.13;51.62;102264.16;5052576;28;19920;-74
2021/04/01 08:36:42;;;;;;;;;;;;;;;19.13;50.03;102267.25;5066999;28;19912;-74
2021/04/01 08:39:07;;;;;;;;;;;;;;;19.56;47.90;102273.84;5069250;28;19913;-74
2021/04/01 08:41:37;;;;;;;;;;;;;;;19.91;45.62;102266.31;5050645;28;19912;-73
2021/04/01 08:44:15;;;;;;;;;;;;;;;20.20;46.19;102276.97;5049900;28;19912;-74
2021/04/01 08:46:59;;;;;;;;;;;;;;;19.80;45.51;102267.94;5070569;28;20369;-74
2021/04/01 08:49:27;;;;;;;;;;;;;;;19.57;46.24;102272.97;5060739;28;19920;-74
2021/04/01 08:52:02;;;;;;;;;;;;;;;20.08;46.38;102282.94;5048560;28;19955;-74
2021/04/01 08:54:36;;;;;;;;;;;;;;;19.87;43.96;102286.28;5068200;28;19912;-74
2021/04/01 08:57:09;;;;;;;;;;;;;;;19.91;44.63;102289.78;5052636;28;19912;-74
2021/04/01 08:59:47;;;;;;;;;;;;;;;19.95;44.68;102293.28;5059947;28;19912;-74
2021/04/01 09:02:13;;;;;;;;;;;;;;;20.42;43.98;102291.91;5050874;28;19966;-74
2021/04/01 09:04:44;;;;;;;;;;;;;;;20.81;43.50;102295.59;5068002;28;19916;-74
2021/04/01 09:07:13;;;;;;;;;;;;;;;20.79;42.86;102297.34;5051564;28;19963;-73
2021/04/01 09:09:39;;;;;;;;;;;;;;;21.06;43.02;102302.69;5069007;28;19921;-75
2021/04/01 09:12:39;;;;;;;;;;;;;;;21.22;42.13;102307.97;5067812;28;19962;-73
2021/04/01 09:15:06;;;;;;;;;;;;;;;20.83;41.75;102303.47;5003893;28;19958;-74
2021/04/01 09:17:32;;;;;;;;;;;;;;;21.38;41.70;102308.03;5070104;28;19916;-74
2021/04/01 09:19:58;;;;;;;;;;;;;;;21.50;39.96;102309.81;5070591;28;20318;-74
2021/04/01 09:22:30;;;;;;;;;;;;;;;21.36;40.80;102303.69;5046336;28;20015;-74
2021/04/01 09:25:00;;;;;;;;;;;;;;;21.16;40.22;102303.59;5066642;28;20037;-73
2021/04/01 09:27:26;;;;;;;;;;;;;;;21.56;39.66;102309.84;5068417;28;19913;-72
2021/04/01 09:30:11;;;;;;;;;;;;;;;21.33;40.17;102316.75;5067353;28;19922;-72
2021/04/01 09:32:37;;;;;;;;;;;;;;;21.65;38.09;102317.69;5040888;28;19917;-73
2021/04/01 09:35:03;;;;;;;;;;;;;;;21.71;39.41;102307.22;5062215;28;19916;-72
2021/04/01 09:37:28;;;;;;;;;;;;;;;21.50;38.96;102317.66;5047380;28;20000;-73
2021/04/01 09:39:55;;;;;;;;;;;;;;;21.77;39.50;102311.59;5058563;28;19913;-73
2021/04/01 09:42:20;;;;;;;;;;;;;;;21.55;37.82;102321.16;5061736;28;19923;-74
2021/04/01 09:44:51;;;;;;;;;;;;;;;21.46;37.38;102317.63;5063547;28;19913;-73
2021/04/01 09:47:26;;;;;;;;;;;;;;;21.35;36.58;102325.47;5064281;28;20004;-73
2021/04/01 09:50:12;;;;;;;;;;;;;;;21.81;36.62;102326.44;5061610;28;19920;-73
2021/04/01 09:52:41;;;;;;;;;;;;;;;21.89;35.34;102331.66;5063431;28;19916;-72
2021/04/01 09:55:11;;;;;;;;;;;;;;;21.66;36.18;102329.03;5066295;28;19912;-73
2021/04/01 09:57:40;;;;;;;;;;;;;;;21.54;36.94;102337.72;5051837;28;19962;-74
2021/04/01 10:00:15;;;;;;;;;;;;;;;22.21;37.86;102323.84;5051421;28;19920;-73
2021/04/01 10:02:42;;;;;;;;;;;;;;;22.20;36.12;102330.81;5064323;28;19916;-73
2021/04/01 10:05:09;;;;;;;;;;;;;;;22.54;35.32;102330.78;5065726;28;19912;-72
2021/04/01 10:07:37;;;;;;;;;;;;;;;22.74;35.67;102334.19;5069382;28;20301;-74
2021/04/01 10:10:04;;;;;;;;;;;;;;;22.64;34.33;102332.50;5065700;28;19916;-71
2021/04/01 10:12:36;;;;;;;;;;;;;;;22.38;35.85;102342.13;5061516;28;19917;-74
2021/04/01 10:15:08;;;;;;;;;;;;;;;22.80;35.57;102336.84;5067176;28;20373;-73
2021/04/01 10:17:34;;;;;;;;;;;;;;;23.11;35.23;102342.88;5069629;28;20437;-74
2021/04/01 10:19:59;;;;;;;;;;;;;;;22.92;35.12;102336.81;5073338;28;19916;-73
2021/04/01 10:22:26;;;;;;;;;;;;;;;23.42;35.28;102334.84;5072857;28;19959;-73
2021/04/01 10:25:08;;;;;;;;;;;;;;;23.21;35.15;102338.44;5055276;28;19916;-73
2021/04/01 10:27:40;;;;;;;;;;;;;;;23.17;35.65;102340.22;5055187;28;19916;-73
2021/04/01 10:30:07;;;;;;;;;;;;;;;23.36;34.86;102347.97;5055093;28;20006;-73
2021/04/01 10:32:41;;;;;;;;;;;;;;;23.47;33.91;102347.03;5071476;28;19917;-73
2021/04/01 10:35:08;;;;;;;;;;;;;;;23.25;35.67;102353.28;5064442;28;19981;-74
2021/04/01 10:37:33;;;;;;;;;;;;;;;23.35;34.68;102348.84;5071604;28;19920;-71
2021/04/01 10:40:00;;;;;;;;;;;;;;;23.48;34.05;102350.53;5046589;28;19912;-72
2021/04/01 10:42:27;;;;;;;;;;;;;;;23.29;34.32;102349.75;5065007;28;19924;-73
2021/04/01 10:44:57;;;;;;;;;;;;;;;22.96;35.06;102356.88;5059645;28;19919;-74
2021/04/01 10:47:22;;;;;;;;;;;;;;;23.30;35.15;102356.75;5053568;28;20360;-73
2021/04/01 10:49:48;;;;;;;;;;;;;;;22.86;35.42;102355.19;5055680;28;20008;-72
2021/04/01 10:52:13;;;;;;;;;;;;;;;23.24;34.38;102347.16;5072007;28;20381;-73
2021/04/01 10:54:38;;;;;;;;;;;;;;;23.09;34.72;102354.22;5073759;28;20374;-73
2021/04/01 10:57:04;;;;;;;;;;;;;;;23.69;34.91;102363.53;5055715;28;20278;-74
2021/04/01 10:59:37;;;;;;;;;;;;;;;23.35;35.14;102357.59;5055485;28;20336;-74
2021/04/01 11:02:08;;;;;;;;;;;;;;;23.33;36.31;102364.59;5070422;28;19912;-74
2021/04/01 11:04:34;;;;;;;;;;;;;;;23.12;35.26;102360.34;5073535;28;20349;-73
2021/04/01 11:07:02;;;;;;;;;;;;;;;22.29;36.83;102361.34;5073396;28;20289;-73
2021/04/01 11:09:28;;;;;;;;;;;;;;;22.52;36.93;102362.22;5073386;28;19919;-74
2021/04/01 11:14:28;;;;;;;;;;;;;;;22.69;36.53;102367.41;5073465;28;19944;-73
2021/04/01 11:16:54;;;;;;;;;;;;;;;22.11;37.82;102375.31;5073212;28;19924;-73
2021/04/01 11:19:20;;;;;;;;;;;;;;;22.30;37.08;102373.56;5055107;28;19919;-75
2021/04/01 11:21:47;;;;;;;;;;;;;;;21.90;37.20;102383.13;5072921;28;19920;-74
2021/04/01 11:24:13;;;;;;;;;;;;;;;21.22;39.19;102378.53;5055128;28;19916;-74
2021/04/01 11:26:39;;;;;;;;;;;;;;;21.47;39.14;102382.16;5073084;28;20431;-74
2021/04/01 11:29:14;;;;;;;;;;;;;;;21.44;38.04;102388.22;5072204;28;19916;-74
2021/04/01 11:31:39;;;;;;;;;;;;;;;21.39;38.97;102389.97;5054749;28;20003;-74
2021/04/01 11:34:06;;;;;;;;;;;;;;;21.07;39.60;102389.78;5072921;28;20405;-74
2021/04/01 11:36:38;;;;;;;;;;;;;;;20.42;40.95;102393.72;5072964;28;19965;-74
2021/04/01 11:39:13;;;;;;;;;;;;;;;19.60;42.31;102405.97;5073089;28;19924;-74
2021/04/01 11:41:45;;;;;;;;;;;;;;;18.94;44.22;102406.81;5071330;28;19912;-74
2021/04/01 11:44:10;;;;;;;;;;;;;;;18.50;44.02;102406.09;5054962;28;19912;-74
2021/04/01 11:46:35;;;;;;;;;;;;;;;17.95;46.47;102419.03;5072828;28;19939;-73
2021/04/01 11:49:01;;;;;;;;;;;;;;;17.84;46.09;102420.53;5072717;28;19912;-74
2021/04/01 11:51:26;;;;;;;;;;;;;;;17.48;46.85;102412.88;5073297;28;19964;-74
2021/04/01 11:53:51;;;;;;;;;;;;;;;17.24;47.16;102418.44;5054640;28;19912;-74
2021/04/01 11:56:17;;;;;;;;;;;;;;;17.00;48.78;102418.78;5072588;28;19919;-73
2021/04/01 11:58:42;;;;;;;;;;;;;;;17.09;49.74;102418.97;5054406;28;19919;-72
2021/04/01 12:01:12;;;;;;;;;;;;;;;16.98;49.87;102423.06;5072092;28;19919;-73
2021/04/01 12:04:00;;;;;;;;;;;;;;;16.79;48.32;102429.53;5054517;28;19916;-73
2021/04/01 12:06:25;;;;;;;;;;;;;;;16.54;49.48;102437.53;5071838;28;19923;-74
2021/04/01 12:08:51;;;;;;;;;;;;;;;16.29;51.16;102435.19;5072325;28;19912;-74
2021/04/01 12:11:16;;;;;;;;;;;;;;;16.08;51.37;102432.91;5071753;28;19947;-74
2021/04/01 12:13:41;;;;;;;;;;;;;;;16.28;53.38;102425.66;5072073;28;19923;-72
2021/04/01 12:16:19;;;;;;;;;;;;;;;16.26;52.31;102432.47;5072074;28;19912;-73
2021/04/01 12:18:45;;;;;;;;;;;;;;;16.20;52.02;102430.63;5072089;28;19912;-72
2021/04/01 12:21:11;;;;;;;;;;;;;;;15.89;52.81;102426.34;5071736;28;21411;-73
2021/04/01 12:23:53;;;;;;;;;;;;;;;15.71;52.67;102436.22;5071876;28;19912;-73
2021/04/01 12:26:18;;;;;;;;;;;;;;;15.34;52.65;102435.13;5054051;28;20001;-74
2021/04/01 12:28:54;;;;;;;;;;;;;;;15.34;53.19;102440.31;5072140;28;19998;-73
2021/04/01 12:31:27;;;;;;;;;;;;;;;15.17;53.93;102439.78;5071447;28;20385;-73
2021/04/01 12:33:52;;;;;;;;;;;;;;;14.90;55.17;102442.38;5051432;28;20009;-70
2021/04/01 12:36:28;;;;;;;;;;;;;;;14.94;55.84;102444.22;5038733;28;19966;-73
2021/04/01 12:38:54;;;;;;;;;;;;;;;15.06;56.69;102445.47;5061471;28;19989;-73
2021/04/01 12:41:23;;;;;;;;;;;;;;;14.70;54.91;102443.47;5060851;28;20382;-74
2021/04/01 12:43:49;;;;;;;;;;;;;;;14.81;55.19;102444.69;5058409;28;19919;-72
2021/04/01 12:46:14;;;;;;;;;;;;;;;14.55;56.38;102449.00;5042734;28;20289;-72
2021/04/01 12:48:43;;;;;;;;;;;;;;;14.69;56.38;102449.47;5046434;28;19919;-72
2021/04/01 12:51:10;;;;;;;;;;;;;;;14.63;55.76;102451.84;5060642;28;19962;-72
2021/04/01 12:53:35;;;;;;;;;;;;;;;14.76;57.03;102453.13;5044845;28;19920;-73
2021/04/01 12:59:00;;;;;;;;;;;;;;;14.43;54.97;102450.31;5060442;28;19913;-73
2021/04/01 13:03:50;;;;;;;;;;;;;;;14.25;55.97;102445.38;5066050;28;19920;-73
2021/04/01 13:06:20;;;;;;;;;;;;;;;14.33;57.19;102455.16;5058114;28;19918;-73
2021/04/01 13:11:24;;;;;;;;;;;;;;;14.09;54.59;102464.66;5069149;28;19924;-73
2021/04/01 13:13:49;;;;;;;;;;;;;;;13.93;56.31;102455.44;5066207;28;19959;-72
2021/04/01 13:16:14;;;;;;;;;;;;;;;14.10;56.96;102452.59;5050041;28;20412;-74
2021/04/01 13:18:40;;;;;;;;;;;;;;;13.79;56.12;102453.22;5070444;28;20267;-74
2021/04/01 13:21:16;;;;;;;;;;;;;;;13.53;56.09;102453.13;5070590;28;19982;-74
2021/04/01 13:26:06;;;;;;;;;;;;;;;13.64;55.53;102456.97;5065945;28;19919;-73
2021/04/01 13:28:32;;;;;;;;;;;;;;;13.74;55.49;102457.34;5064380;28;20370;-73
2021/04/01 13:30:59;;;;;;;;;;;;;;;13.66;55.07;102445.03;5051224;28;19939;-73
2021/04/01 13:33:49;;;;;;;;;;;;;;;13.64;57.25;102459.56;5052686;28;19913;-74
2021/04/01 13:36:29;;;;;;;;;;;;;;;13.72;57.31;102451.25;5070743;28;19927;-72
2021/04/01 13:38:54;;;;;;;;;;;;;;;13.71;56.98;102450.34;5052850;28;20377;-71
2021/04/01 13:41:27;;;;;;;;;;;;;;;13.53;57.57;102458.28;5070578;28;20012;-73
2021/04/01 13:43:54;;;;;;;;;;;;;;;13.56;59.43;102458.41;5052646;28;19913;-73
2021/04/01 13:46:19;;;;;;;;;;;;;;;13.39;57.46;102459.50;5069498;28;20003;-73
2021/04/01 13:48:46;;;;;;;;;;;;;;;13.54;58.05;102460.06;5070640;28;20010;-73
2021/04/01 13:51:18;;;;;;;;;;;;;;;13.39;57.82;102457.78;5070511;28;19916;-73
2021/04/01 13:56:32;;;;;;;;;;;;;;;13.11;58.17;102457.50;5075059;28;19939;-74
2021/04/01 13:59:20;;;;;;;;;;;;;;;13.05;57.50;102455.56;5074679;28;19912;-72
2021/04/01 14:10:20;;;;;;;;;;;;;;;12.87;56.31;102467.72;5049328;28;19919;-73
2021/04/01 14:12:48;;;;;;;;;;;;;;;12.91;57.51;102469.59;5055058;28;19916;-73
2021/04/01 14:15:13;;;;;;;;;;;;;;;12.94;58.68;102471.44;5073287;28;20003;-73
2021/04/01 14:17:39;;;;;;;;;;;;;;;12.91;55.96;102459.28;5073519;28;20050;-72
2021/04/01 14:20:06;;;;;;;;;;;;;;;12.89;55.51;102466.09;5073425;28;19912;-73
2021/04/01 14:22:32;;;;;;;;;;;;;;;12.82;56.47;102464.09;5073176;28;19922;-73
2021/04/01 14:25:03;;;;;;;;;;;;;;;12.94;56.90;102454.25;5072207;28;19912;-73
2021/04/01 14:27:40;;;;;;;;;;;;;;;12.87;56.70;102465.16;5071882;28;19919;-73
2021/04/01 14:30:06;;;;;;;;;;;;;;;12.71;55.23;102457.63;5053701;28;19912;-73
2021/04/01 14:32:33;;;;;;;;;;;;;;;12.66;56.77;102462.56;5071938;28;19923;-73
2021/04/01 14:34:59;;;;;;;;;;;;;;;12.63;56.50;102461.56;5044569;28;20382;-72